Time;durP1;ratioP1;P1;durP2;ratioP2;P2;SDS_P1;SDS_P2;PMS_P1;PMS_P2;Temp;Humidity;BMP_temperature;BMP_pressure;BME280_temperature;BME280_humidity;BME280_pressure;Samples;Min_cycle;Max_cycle;Signal;HPM_P1;HPM_P2
2021/01/15 00:00:46;;;;;;;14.67;8.90;;;0.90;66.40;;;;;;5072082;28;20028;-82
2021/01/15 00:03:12;;;;;;;14.67;8.47;;;0.90;66.40;;;;;;5053111;28;20029;-82
2021/01/15 00:05:39;;;;;;;15.13;8.60;;;0.90;66.40;;;;;;5071327;28;20129;-82
2021/01/15 00:08:05;;;;;;;13.20;8.20;;;0.90;66.40;;;;;;5070961;28;20459;-82
2021/01/15 00:10:31;;;;;;;16.77;8.20;;;0.90;66.40;;;;;;5061682;28;20781;-82
2021/01/15 00:12:57;;;;;;;16.17;8.43;;;0.90;66.30;;;;;;5068254;28;20286;-82
2021/01/15 00:15:22;;;;;;;12.47;6.73;;;1.00;66.40;;;;;;5067392;28;20067;-82
2021/01/15 00:17:48;;;;;;;9.20;5.70;;;0.90;66.20;;;;;;5071977;28;20078;-82
2021/01/15 00:20:14;;;;;;;9.67;5.33;;;0.90;66.20;;;;;;5070698;28;20039;-82
2021/01/15 00:22:43;;;;;;;9.23;4.77;;;0.90;66.10;;;;;;5062228;28;20027;-82
2021/01/15 00:25:12;;;;;;;8.77;4.13;;;0.90;66.10;;;;;;5065546;28;20020;-82
2021/01/15 00:27:38;;;;;;;7.83;4.50;;;0.90;65.90;;;;;;5070183;28;20348;-82
2021/01/15 00:30:06;;;;;;;8.00;4.63;;;0.90;65.90;;;;;;5061082;28;20842;-82
2021/01/15 00:32:32;;;;;;;5.87;3.70;;;0.90;65.90;;;;;;5066479;28;20267;-82
2021/01/15 00:34:57;;;;;;;7.20;4.10;;;0.90;65.90;;;;;;5070229;28;20371;-82
2021/01/15 00:37:23;;;;;;;7.43;4.53;;;0.90;65.90;;;;;;5054905;28;20043;-82
2021/01/15 00:39:49;;;;;;;6.50;3.97;;;0.90;65.70;;;;;;5062318;28;20368;-82
2021/01/15 00:42:14;;;;;;;8.97;4.60;;;0.90;65.70;;;;;;5058516;28;20035;-82
2021/01/15 00:44:45;;;;;;;7.57;4.43;;;0.90;65.80;;;;;;5068691;28;20029;-82
2021/01/15 00:47:11;;;;;;;9.33;4.40;;;0.90;65.80;;;;;;5072314;28;20024;-82
2021/01/15 00:49:37;;;;;;;11.33;5.73;;;0.90;65.70;;;;;;5064586;28;20294;-82
2021/01/15 00:52:03;;;;;;;10.93;6.70;;;0.90;65.80;;;;;;5064405;28;20276;-82
2021/01/15 00:54:29;;;;;;;13.53;7.03;;;0.90;65.80;;;;;;5073914;28;20007;-82
2021/01/15 00:56:59;;;;;;;12.20;7.07;;;0.90;65.80;;;;;;5063699;28;20025;-82
2021/01/15 00:59:25;;;;;;;12.30;7.23;;;0.80;65.90;;;;;;5061310;28;20745;-82
2021/01/15 01:01:51;;;;;;;12.40;7.43;;;0.90;65.90;;;;;;5062778;28;20276;-82
2021/01/15 01:04:17;;;;;;;11.17;7.23;;;0.80;65.80;;;;;;5073200;28;20585;-82
2021/01/15 01:06:42;;;;;;;15.63;8.40;;;0.80;65.90;;;;;;5060581;28;20352;-82
2021/01/15 01:09:08;;;;;;;11.10;7.20;;;0.80;65.90;;;;;;5076011;28;20028;-81
2021/01/15 01:11:34;;;;;;;13.80;7.97;;;0.70;66.00;;;;;;5074308;28;20029;-81
2021/01/15 01:14:01;;;;;;;12.63;7.23;;;0.70;66.00;;;;;;5071715;28;20036;-82
2021/01/15 01:16:27;;;;;;;11.37;7.13;;;0.70;66.00;;;;;;5074611;28;20043;-82
2021/01/15 01:18:54;;;;;;;11.37;7.07;;;0.70;66.10;;;;;;5062068;28;20256;-82
2021/01/15 01:21:21;;;;;;;11.87;6.90;;;0.80;66.10;;;;;;5068681;28;20282;-82
2021/01/15 01:23:49;;;;;;;12.33;7.47;;;0.80;66.10;;;;;;5075044;28;20635;-82
2021/01/15 01:26:16;;;;;;;13.83;7.90;;;0.80;66.20;;;;;;5075965;28;20286;-82
2021/01/15 01:28:42;;;;;;;12.07;7.53;;;0.80;65.90;;;;;;5059729;28;20278;-82
2021/01/15 01:31:12;;;;;;;14.57;7.87;;;0.80;66.10;;;;;;5069033;28;20386;-82
2021/01/15 01:33:39;;;;;;;14.30;7.80;;;0.80;66.00;;;;;;5071379;28;20299;-82
2021/01/15 01:36:05;;;;;;;13.43;8.13;;;0.80;65.90;;;;;;5069055;28;20283;-81
2021/01/15 01:38:31;;;;;;;12.83;7.20;;;0.80;66.00;;;;;;5064373;28;20267;-81
2021/01/15 01:40:57;;;;;;;10.80;6.63;;;0.80;65.90;;;;;;5063277;28;20305;-82
2021/01/15 01:43:23;;;;;;;12.47;7.57;;;0.70;65.90;;;;;;5062392;28;20035;-82
2021/01/15 01:45:49;;;;;;;14.13;7.77;;;0.70;65.90;;;;;;5056190;28;20354;-81
2021/01/15 01:48:15;;;;;;;13.37;7.70;;;0.70;66.00;;;;;;5070210;28;20035;-81
2021/01/15 01:50:45;;;;;;;13.80;7.50;;;0.70;66.10;;;;;;5072924;28;20055;-81
2021/01/15 01:53:13;;;;;;;14.47;7.53;;;0.70;66.10;;;;;;5068685;28;20279;-81
2021/01/15 01:55:41;;;;;;;12.87;7.10;;;0.70;66.10;;;;;;5065227;28;20803;-81
2021/01/15 01:58:08;;;;;;;13.23;6.77;;;0.70;66.10;;;;;;5074399;28;20306;-81
2021/01/15 02:00:40;;;;;;;12.63;6.60;;;0.70;66.10;;;;;;5072604;28;20278;-82
2021/01/15 02:03:06;;;;;;;13.57;7.47;;;0.70;66.10;;;;;;5072827;28;20645;-81
2021/01/15 02:05:32;;;;;;;11.63;8.03;;;0.70;66.00;;;;;;5064513;28;20314;-81
2021/01/15 02:07:58;;;;;;;13.10;7.50;;;0.70;65.90;;;;;;5070496;28;20336;-81
2021/01/15 02:10:36;;;;;;;13.80;7.80;;;0.70;66.00;;;;;;5073467;28;20032;-81
2021/01/15 02:13:13;;;;;;;15.23;7.57;;;0.60;66.00;;;;;;5069627;28;20340;-81
2021/01/15 02:15:47;;;;;;;14.03;7.90;;;0.60;66.10;;;;;;5073563;28;20275;-81
2021/01/15 02:18:35;;;;;;;14.83;8.30;;;0.60;66.00;;;;;;5059287;28;20271;-81
2021/01/15 02:21:39;;;;;;;12.90;7.73;;;0.60;66.10;;;;;;5067687;28;20287;-81
2021/01/15 02:24:42;;;;;;;13.30;7.23;;;0.50;66.10;;;;;;5054326;28;20280;-81
2021/01/15 02:27:46;;;;;;;13.83;8.03;;;0.50;66.00;;;;;;5057321;28;20314;-81
2021/01/15 02:30:30;;;;;;;19.53;11.83;;;0.50;66.10;;;;;;5069041;28;20291;-81
2021/01/15 02:32:59;;;;;;;39.90;24.67;;;0.50;66.10;;;;;;5074624;28;20267;-81
2021/01/15 02:35:52;;;;;;;30.97;20.37;;;0.50;66.10;;;;;;5075933;28;20408;-81
2021/01/15 02:38:40;;;;;;;19.03;12.13;;;0.50;66.10;;;;;;5073219;28;20297;-81
2021/01/15 02:41:20;;;;;;;13.97;8.07;;;0.50;66.10;;;;;;5063651;28;20287;-81
2021/01/15 02:43:59;;;;;;;14.97;8.60;;;0.40;66.00;;;;;;5069784;28;20277;-81
2021/01/15 02:46:43;;;;;;;17.87;9.17;;;0.50;66.00;;;;;;5083352;28;20828;-81
2021/01/15 02:49:10;;;;;;;17.17;8.67;;;0.50;66.00;;;;;;5054209;28;20279;-81
2021/01/15 02:51:40;;;;;;;13.23;8.60;;;0.40;65.90;;;;;;5072696;28;20313;-81
2021/01/15 02:54:06;;;;;;;13.13;8.30;;;0.40;65.90;;;;;;5073195;28;20275;-81
2021/01/15 02:56:32;;;;;;;17.13;8.80;;;0.40;65.90;;;;;;5066136;28;20331;-81
2021/01/15 02:58:58;;;;;;;15.37;8.37;;;0.40;65.90;;;;;;5073117;28;20764;-81
2021/01/15 03:01:23;;;;;;;14.83;8.67;;;0.40;65.80;;;;;;5063799;28;20029;-81
2021/01/15 03:03:56;;;;;;;14.40;9.23;;;0.30;66.00;;;;;;5063283;28;20033;-81
2021/01/15 03:06:42;;;;;;;14.37;9.17;;;0.30;66.00;;;;;;5072107;28;20066;-81
2021/01/15 03:09:10;;;;;;;16.77;9.73;;;0.30;65.70;;;;;;5074483;28;20363;-81
2021/01/15 03:11:38;;;;;;;13.03;8.53;;;0.20;65.90;;;;;;5063930;28;20279;-81
2021/01/15 03:14:06;;;;;;;14.37;8.93;;;0.20;66.00;;;;;;5066303;28;20279;-81
2021/01/15 03:16:33;;;;;;;14.47;8.13;;;0.20;66.00;;;;;;5088274;28;20327;-81
2021/01/15 03:19:00;;;;;;;13.77;8.87;;;0.20;65.90;;;;;;5074508;28;20286;-82
2021/01/15 03:21:36;;;;;;;13.47;8.23;;;0.20;66.00;;;;;;5069805;28;20365;-82
2021/01/15 03:24:03;;;;;;;13.63;9.50;;;0.20;65.90;;;;;;5058811;28;20330;-81
2021/01/15 03:26:29;;;;;;;12.20;7.50;;;0.10;65.90;;;;;;5072754;28;20274;-81
2021/01/15 03:28:54;;;;;;;17.77;8.07;;;0.20;66.00;;;;;;5070024;28;20278;-81
2021/01/15 03:31:20;;;;;;;12.07;7.80;;;0.20;66.00;;;;;;5066425;28;20078;-81
2021/01/15 03:33:46;;;;;;;26.60;7.90;;;0.10;65.80;;;;;;5057262;28;20027;-81
2021/01/15 03:36:12;;;;;;;15.03;7.93;;;0.10;65.90;;;;;;5061443;28;20036;-81
2021/01/15 03:38:37;;;;;;;18.30;8.10;;;0.10;65.90;;;;;;5072314;28;20048;-81
2021/01/15 03:41:03;;;;;;;15.77;8.17;;;0.10;65.80;;;;;;5065521;28;20063;-81
2021/01/15 03:43:30;;;;;;;14.57;7.53;;;0.10;65.80;;;;;;5057843;28;20029;-81
2021/01/15 03:45:56;;;;;;;15.17;7.23;;;0.10;65.80;;;;;;5056554;28;20471;-81
2021/01/15 03:48:22;;;;;;;12.63;7.10;;;0.10;65.70;;;;;;5071476;28;20740;-81
2021/01/15 03:50:51;;;;;;;14.37;7.20;;;0.00;65.50;;;;;;5070929;28;20380;-81
2021/01/15 03:53:18;;;;;;;13.93;7.67;;;0.00;65.50;;;;;;5059537;28;20638;-81
2021/01/15 03:55:44;;;;;;;13.70;7.63;;;0.00;65.50;;;;;;5062241;28;20286;-81
2021/01/15 03:58:10;;;;;;;13.17;7.27;;;-0.10;65.30;;;;;;5071541;28;20270;-81
2021/01/15 04:00:36;;;;;;;13.17;6.77;;;-0.10;65.30;;;;;;5067861;28;20290;-81
2021/01/15 04:03:02;;;;;;;11.17;7.17;;;-0.10;65.20;;;;;;5058688;28;20852;-81
2021/01/15 04:05:29;;;;;;;14.70;6.97;;;-0.20;65.20;;;;;;5072618;28;20017;-81
2021/01/15 04:07:55;;;;;;;12.23;7.00;;;-0.20;65.10;;;;;;5067849;28;20036;-81
2021/01/15 04:10:21;;;;;;;11.23;6.70;;;-0.20;65.20;;;;;;5053305;28;20283;-81
2021/01/15 04:12:47;;;;;;;13.00;7.43;;;-0.20;65.10;;;;;;5071682;28;20271;-81
2021/01/15 04:15:14;;;;;;;11.13;7.10;;;-0.20;65.00;;;;;;5064658;28;20275;-81
2021/01/15 04:17:40;;;;;;;11.33;7.00;;;-0.20;64.90;;;;;;5063804;28;20032;-81
2021/01/15 04:20:08;;;;;;;11.40;6.50;;;-0.30;64.70;;;;;;5060405;28;20666;-81
2021/01/15 04:22:39;;;;;;;14.80;8.00;;;-0.30;64.80;;;;;;5068063;28;20278;-81
2021/01/15 04:25:06;;;;;;;14.97;7.47;;;-0.40;64.80;;;;;;5071752;28;20419;-81
2021/01/15 04:27:33;;;;;;;15.33;7.67;;;-0.40;64.70;;;;;;5072769;28;20267;-82
2021/01/15 04:30:01;;;;;;;16.37;7.83;;;-0.40;64.80;;;;;;5072617;28;20301;-82
2021/01/15 04:32:27;;;;;;;20.60;8.47;;;-0.40;64.80;;;;;;5067231;28;20634;-82
2021/01/15 04:34:53;;;;;;;12.70;7.53;;;-0.50;64.60;;;;;;5067200;28;20765;-82
2021/01/15 04:37:19;;;;;;;15.00;7.60;;;-0.50;64.80;;;;;;5075598;28;20027;-82
2021/01/15 04:39:45;;;;;;;15.00;8.13;;;-0.50;64.60;;;;;;5068297;28;20278;-82
2021/01/15 04:42:14;;;;;;;14.33;8.00;;;-0.50;64.80;;;;;;5065205;28;20048;-82
2021/01/15 04:44:40;;;;;;;18.47;9.63;;;-0.50;64.80;;;;;;5065078;28;20032;-82
2021/01/15 04:47:08;;;;;;;16.30;9.33;;;-0.50;64.60;;;;;;5057733;28;20291;-82
2021/01/15 04:49:35;;;;;;;17.60;9.70;;;-0.50;64.60;;;;;;5073837;28;20341;-82
2021/01/15 04:52:02;;;;;;;17.07;8.73;;;-0.60;64.60;;;;;;5068221;28;20352;-82
2021/01/15 04:54:39;;;;;;;19.57;9.83;;;-0.60;64.60;;;;;;5072357;28;20698;-82
2021/01/15 04:57:14;;;;;;;20.03;10.10;;;-0.60;64.70;;;;;;5076393;28;20282;-82
2021/01/15 04:59:45;;;;;;;17.47;10.03;;;-0.70;64.70;;;;;;5058384;28;20283;-82
2021/01/15 05:02:14;;;;;;;17.03;9.57;;;-0.60;64.80;;;;;;5058945;28;20637;-82
2021/01/15 05:04:40;;;;;;;16.00;8.80;;;-0.70;64.40;;;;;;5068103;28;20271;-83
2021/01/15 05:07:08;;;;;;;16.40;10.23;;;-0.70;64.50;;;;;;5076179;28;20314;-82
2021/01/15 05:09:39;;;;;;;17.60;10.23;;;-0.70;64.40;;;;;;5075562;28;20788;-82
2021/01/15 05:12:08;;;;;;;17.60;9.83;;;-0.80;64.30;;;;;;5082331;28;20290;-82
2021/01/15 05:14:35;;;;;;;19.57;10.67;;;-0.80;64.40;;;;;;5077767;28;20279;-82
2021/01/15 05:17:06;;;;;;;17.97;9.33;;;-0.80;64.50;;;;;;5076010;28;21238;-82
2021/01/15 05:19:32;;;;;;;18.17;10.57;;;-0.80;64.50;;;;;;5074679;28;20290;-82
2021/01/15 05:21:58;;;;;;;21.77;9.60;;;-0.80;64.50;;;;;;5076892;28;20259;-82
2021/01/15 05:24:25;;;;;;;16.17;9.77;;;-0.90;64.40;;;;;;5058758;28;20279;-82
2021/01/15 05:26:51;;;;;;;15.07;9.40;;;-0.90;64.30;;;;;;5070398;28;20718;-82
2021/01/15 05:29:17;;;;;;;17.73;9.57;;;-0.90;64.30;;;;;;5077048;28;20293;-82
2021/01/15 05:31:56;;;;;;;18.50;10.33;;;-0.90;64.20;;;;;;5077354;28;20581;-82
2021/01/15 05:34:24;;;;;;;20.00;10.17;;;-0.90;64.00;;;;;;5075706;28;20146;-82
2021/01/15 05:36:50;;;;;;;18.67;10.03;;;-1.00;64.10;;;;;;5071325;28;20285;-82
2021/01/15 05:39:17;;;;;;;17.60;9.47;;;-1.00;64.10;;;;;;5059946;28;20668;-81
2021/01/15 05:41:44;;;;;;;16.80;10.17;;;-1.10;64.00;;;;;;5058286;28;20350;-81
2021/01/15 05:44:10;;;;;;;19.60;10.27;;;-1.10;64.00;;;;;;5094917;28;20263;-81
2021/01/15 05:46:46;;;;;;;15.53;9.77;;;-1.10;63.90;;;;;;5075827;28;20343;-81
2021/01/15 05:49:13;;;;;;;16.17;9.20;;;-1.10;64.00;;;;;;5071823;28;20331;-81
2021/01/15 05:51:39;;;;;;;13.20;8.43;;;-1.10;63.80;;;;;;5092300;28;20289;-81
2021/01/15 05:54:07;;;;;;;16.90;9.07;;;-1.20;63.80;;;;;;5089409;28;20274;-81
2021/01/15 05:56:36;;;;;;;18.70;10.27;;;-1.20;63.90;;;;;;5076068;28;20625;-82
2021/01/15 05:59:13;;;;;;;18.43;10.57;;;-1.30;63.70;;;;;;5067790;28;20317;-82
2021/01/15 06:01:46;;;;;;;19.23;10.20;;;-1.30;63.70;;;;;;5054321;28;20418;-82
2021/01/15 06:04:18;;;;;;;21.43;11.67;;;-1.30;64.30;;;;;;5067064;28;20285;-82
2021/01/15 06:06:46;;;;;;;19.63;12.20;;;-1.30;63.70;;;;;;5074166;28;20278;-82
2021/01/15 06:09:18;;;;;;;22.03;11.83;;;-1.30;63.60;;;;;;5067731;28;20607;-82
2021/01/15 06:11:43;;;;;;;27.70;12.15;;;-1.30;63.60;;;;;;5072546;28;20294;-82
2021/01/15 06:14:29;;;;;;;20.97;12.93;;;-1.30;63.70;;;;;;5072878;28;20024;-82
2021/01/15 06:17:03;;;;;;;22.93;12.23;;;-1.30;63.50;;;;;;5074375;28;20105;-82
2021/01/15 06:19:54;;;;;;;21.27;12.13;;;-1.40;63.40;;;;;;5074966;28;20263;-82
2021/01/15 06:22:36;;;;;;;18.80;11.40;;;-1.50;63.40;;;;;;5053981;28;20264;-82
2021/01/15 06:25:20;;;;;;;24.30;11.70;;;-1.50;63.60;;;;;;5062443;28;20304;-82
2021/01/15 06:27:47;;;;;;;19.87;11.37;;;-1.60;63.50;;;;;;5066937;28;20036;-82
2021/01/15 06:30:17;;;;;;;28.67;13.73;;;-1.60;63.40;;;;;;5052596;28;20826;-82
2021/01/15 06:32:45;;;;;;;21.37;12.23;;;-1.60;63.40;;;;;;5063498;28;20279;-82
2021/01/15 06:35:23;;;;;;;25.17;13.10;;;-1.60;63.30;;;;;;5070085;28;20262;-81
2021/01/15 06:38:00;;;;;;;19.70;11.10;;;-1.70;63.20;;;;;;5055654;28;20275;-82
2021/01/15 06:40:30;;;;;;;27.00;13.13;;;-1.80;63.40;;;;;;5071250;28;20286;-82
2021/01/15 06:42:57;;;;;;;25.40;12.77;;;-1.80;63.30;;;;;;5075609;28;20285;-82
2021/01/15 06:45:23;;;;;;;26.33;13.00;;;-1.80;63.20;;;;;;5070456;28;20361;-82
2021/01/15 06:47:53;;;;;;;25.77;12.83;;;-1.80;63.30;;;;;;5074836;28;20732;-82
2021/01/15 06:50:20;;;;;;;28.40;13.70;;;-1.80;63.30;;;;;;5064700;28;20045;-82
2021/01/15 06:52:50;;;;;;;22.30;13.03;;;-1.80;63.10;;;;;;5073423;28;20282;-82
2021/01/15 06:55:20;;;;;;;27.73;14.87;;;-1.80;63.10;;;;;;5070106;28;20636;-82
2021/01/15 06:57:50;;;;;;;47.33;20.93;;;-1.90;63.00;;;;;;5063747;28;20290;-82
2021/01/15 07:00:23;;;;;;;56.90;24.60;;;-2.00;62.90;;;;;;5065607;28;20288;-82
2021/01/15 07:03:27;;;;;;;59.07;25.43;;;-2.00;62.90;;;;;;5075163;28;20326;-82
2021/01/15 07:05:54;;;;;;;35.77;17.70;;;-2.00;63.10;;;;;;5057961;28;20274;-82
2021/01/15 07:08:23;;;;;;;28.03;15.63;;;-2.00;63.00;;;;;;5073390;28;20707;-82
2021/01/15 07:10:49;;;;;;;32.87;16.27;;;-2.00;62.90;;;;;;5073125;28;20765;-82
2021/01/15 07:13:25;;;;;;;32.27;15.23;;;-2.10;62.90;;;;;;5074031;28;20374;-82
2021/01/15 07:15:54;;;;;;;28.90;15.03;;;-2.10;62.80;;;;;;5072223;28;20277;-82
2021/01/15 07:18:32;;;;;;;26.67;14.43;;;-2.00;62.90;;;;;;5058999;28;20685;-82
2021/01/15 07:21:06;;;;;;;26.13;14.27;;;-2.00;62.70;;;;;;5051288;28;20275;-82
2021/01/15 07:23:54;;;;;;;27.30;13.60;;;-2.00;62.60;;;;;;5063612;28;20772;-82
2021/01/15 07:26:21;;;;;;;27.40;13.33;;;-2.10;62.50;;;;;;5061962;28;20291;-82
2021/01/15 07:28:49;;;;;;;32.20;13.13;;;-2.10;62.60;;;;;;5062207;28;20283;-82
2021/01/15 07:31:23;;;;;;;25.20;13.60;;;-2.10;62.60;;;;;;5062908;28;20291;-82
2021/01/15 07:33:58;;;;;;;23.40;13.03;;;-2.10;62.60;;;;;;5061292;28;20276;-82
2021/01/15 07:36:38;;;;;;;23.43;12.37;;;-2.20;62.50;;;;;;5066510;28;20302;-82
2021/01/15 07:39:09;;;;;;;37.73;17.67;;;-2.20;62.30;;;;;;5070416;28;20293;-82
2021/01/15 07:41:52;;;;;;;59.97;26.13;;;-2.30;62.20;;;;;;5072245;28;20773;-82
2021/01/15 07:44:21;;;;;;;49.13;24.92;;;-2.40;62.50;;;;;;5070894;28;20275;-82
2021/01/15 07:46:48;;;;;;;47.53;20.47;;;-2.40;62.60;;;;;;5061437;28;20060;-82
2021/01/15 07:49:14;;;;;;;48.87;22.57;;;-2.30;62.50;;;;;;5074360;28;20274;-82
2021/01/15 07:51:39;;;;;;;39.83;18.97;;;-2.30;62.40;;;;;;5064741;28;20373;-82
2021/01/15 07:54:05;;;;;;;42.80;19.47;;;-2.40;62.20;;;;;;5066380;28;20017;-81
2021/01/15 07:56:31;;;;;;;41.83;20.07;;;-2.40;62.30;;;;;;5059827;28;20052;-81
2021/01/15 07:58:57;;;;;;;50.57;24.20;;;-2.40;62.60;;;;;;5066383;28;20031;-82
2021/01/15 08:01:23;;;;;;;45.10;23.67;;;-2.40;62.30;;;;;;5064756;28;20282;-81
2021/01/15 08:03:56;;;;;;;55.90;26.60;;;-2.40;62.30;;;;;;5066554;28;20063;-81
2021/01/15 08:06:22;;;;;;;58.22;24.33;;;-2.40;62.00;;;;;;5075037;28;20255;-82
2021/01/15 08:09:00;;;;;;;54.67;23.90;;;-2.40;62.00;;;;;;5072312;28;20040;-82
2021/01/15 08:11:27;;;;;;;38.33;20.20;;;-2.40;62.00;;;;;;5063875;28;20299;-81
2021/01/15 08:14:14;;;;;;;34.30;18.47;;;-2.40;62.00;;;;;;5063033;28;20282;-81
2021/01/15 08:16:41;;;;;;;27.00;15.00;;;-2.40;62.00;;;;;;5089142;28;20277;-81
2021/01/15 08:19:26;;;;;;;23.97;14.10;;;-2.30;62.00;;;;;;5073393;28;20263;-82
2021/01/15 08:21:53;;;;;;;28.27;14.17;;;-2.30;61.90;;;;;;5069588;28;20282;-82
2021/01/15 08:24:19;;;;;;;50.27;23.73;;;-2.30;61.80;;;;;;5056775;28;20333;-82
2021/01/15 08:26:50;;;;;;;44.27;24.30;;;-2.40;61.70;;;;;;5068956;28;20271;-81
2021/01/15 08:29:17;;;;;;;49.50;21.67;;;-2.50;61.60;;;;;;5061120;28;20448;-82
2021/01/15 08:31:45;;;;;;;39.43;21.37;;;-2.50;61.80;;;;;;5072118;28;20298;-82
2021/01/15 08:34:16;;;;;;;56.23;26.57;;;-2.50;61.70;;;;;;5067069;28;20790;-82
2021/01/15 08:36:43;;;;;;;39.07;21.43;;;-2.40;61.80;;;;;;5057427;28;20791;-82
2021/01/15 08:39:09;;;;;;;38.33;20.57;;;-2.40;61.60;;;;;;5053916;28;20251;-82
2021/01/15 08:41:35;;;;;;;40.00;21.30;;;-2.30;61.70;;;;;;5059799;28;20350;-82
2021/01/15 08:44:01;;;;;;;38.30;19.50;;;-2.30;61.50;;;;;;5054729;28;20287;-82
2021/01/15 08:46:28;;;;;;;28.77;17.00;;;-2.30;61.50;;;;;;5069877;28;20262;-82
2021/01/15 08:48:54;;;;;;;37.27;20.97;;;-2.40;61.40;;;;;;5073231;28;20034;-82
2021/01/15 08:51:20;;;;;;;44.17;24.03;;;-2.30;61.80;;;;;;5066831;28;20649;-82
2021/01/15 08:54:05;;;;;;;34.30;18.17;;;-2.30;61.60;;;;;;5068342;28;20032;-82
2021/01/15 08:56:31;;;;;;;27.27;13.93;;;-2.30;61.50;;;;;;5068072;28;20275;-82
2021/01/15 08:58:57;;;;;;;28.50;13.30;;;-2.20;62.10;;;;;;5068469;28;20310;-82
2021/01/15 09:01:28;;;;;;;24.57;12.40;;;-2.30;61.60;;;;;;5065398;28;20027;-82
2021/01/15 09:04:00;;;;;;;23.23;12.77;;;-2.20;61.80;;;;;;5085767;28;20274;-82
2021/01/15 09:06:27;;;;;;;24.67;13.82;;;-2.20;61.60;;;;;;5066278;28;20290;-82
2021/01/15 09:08:56;;;;;;;29.97;14.73;;;-2.20;61.60;;;;;;5073489;28;20032;-82
2021/01/15 09:11:27;;;;;;;24.03;13.97;;;-2.10;61.70;;;;;;5070908;28;20358;-82
2021/01/15 09:13:54;;;;;;;23.00;13.37;;;-2.10;61.60;;;;;;5064931;28;20275;-82
2021/01/15 09:16:22;;;;;;;25.60;13.77;;;-2.10;61.60;;;;;;5069316;28;20294;-82
2021/01/15 09:18:50;;;;;;;23.87;13.47;;;-2.10;61.50;;;;;;5063545;28;20275;-82
2021/01/15 09:21:15;;;;;;;27.50;16.27;;;-2.10;61.40;;;;;;5066149;28;20324;-82
2021/01/15 09:23:41;;;;;;;30.30;18.37;;;-2.00;61.60;;;;;;5061798;28;20780;-82
2021/01/15 09:26:08;;;;;;;31.90;19.40;;;-1.90;61.50;;;;;;5077104;28;20036;-82
2021/01/15 09:28:34;;;;;;;33.37;17.20;;;-1.90;61.50;;;;;;5072299;28;20397;-82
2021/01/15 09:31:00;;;;;;;22.97;12.43;;;-1.80;61.40;;;;;;5071393;28;20291;-82
2021/01/15 09:33:25;;;;;;;29.17;14.90;;;-1.70;61.40;;;;;;5073832;28;20051;-82
2021/01/15 09:35:54;;;;;;;30.13;15.27;;;-1.50;62.00;;;;;;5070813;28;20131;-82
2021/01/15 09:38:20;;;;;;;25.70;15.30;;;-1.20;61.10;;;;;;5077413;28;20391;-82
2021/01/15 09:40:45;;;;;;;30.40;15.47;;;-1.00;60.90;;;;;;5077440;28;20282;-82
2021/01/15 09:43:11;;;;;;;24.77;12.73;;;-0.70;60.50;;;;;;5072310;28;20021;-82
2021/01/15 09:45:37;;;;;;;22.97;12.77;;;-0.40;60.20;;;;;;5076328;28;20037;-82
2021/01/15 09:48:09;;;;;;;20.73;12.70;;;-0.30;59.80;;;;;;5069021;28;20028;-82
2021/01/15 09:50:35;;;;;;;22.42;13.57;;;-0.10;59.50;;;;;;5066108;28;20056;-82
2021/01/15 09:53:01;;;;;;;20.07;12.20;;;0.10;59.30;;;;;;5064920;28;20475;-82
2021/01/15 09:55:26;;;;;;;19.40;11.67;;;0.30;59.10;;;;;;5065103;28;20013;-82
2021/01/15 09:57:52;;;;;;;19.87;11.83;;;0.40;58.70;;;;;;5071501;28;20107;-82
2021/01/15 10:00:18;;;;;;;22.23;13.43;;;0.50;58.40;;;;;;5058768;28;20073;-82
2021/01/15 10:02:44;;;;;;;20.47;12.57;;;0.60;58.40;;;;;;5077665;28;20129;-82
2021/01/15 10:05:10;;;;;;;20.70;11.90;;;0.80;58.10;;;;;;5077374;28;20028;-82
2021/01/15 10:07:35;;;;;;;27.53;13.00;;;0.80;57.50;;;;;;5076531;28;20103;-82
2021/01/15 10:10:02;;;;;;;19.23;11.60;;;0.80;57.70;;;;;;5068518;28;20064;-82
2021/01/15 10:12:27;;;;;;;19.67;12.60;;;1.10;57.80;;;;;;5066919;28;20045;-82
2021/01/15 10:14:53;;;;;;;19.13;12.33;;;1.20;57.40;;;;;;5072940;28;20084;-82
2021/01/15 10:17:18;;;;;;;17.97;12.40;;;1.30;57.40;;;;;;5059022;28;20035;-82
2021/01/15 10:19:44;;;;;;;19.83;12.83;;;1.40;57.10;;;;;;5064562;28;20036;-82
2021/01/15 10:22:10;;;;;;;21.40;13.37;;;1.40;56.50;;;;;;5075859;28;20063;-82
2021/01/15 10:24:35;;;;;;;19.73;12.77;;;1.50;56.50;;;;;;5074071;28;20363;-82
2021/01/15 10:27:01;;;;;;;21.50;12.53;;;1.70;56.50;;;;;;5074894;28;20033;-82
2021/01/15 10:29:27;;;;;;;21.33;11.93;;;1.80;56.10;;;;;;5076052;28;20056;-82
2021/01/15 10:31:55;;;;;;;21.33;12.47;;;1.80;55.80;;;;;;5066519;28;20110;-82
2021/01/15 10:34:25;;;;;;;18.73;12.47;;;1.90;55.70;;;;;;5061590;28;20024;-83
2021/01/15 10:36:52;;;;;;;20.40;11.17;;;2.10;55.70;;;;;;5067125;28;20042;-82
2021/01/15 10:39:18;;;;;;;14.83;9.27;;;2.20;55.50;;;;;;5075739;28;20037;-83
2021/01/15 10:41:52;;;;;;;15.50;10.83;;;2.20;55.20;;;;;;5059316;28;20025;-83
2021/01/15 10:44:19;;;;;;;22.17;12.30;;;2.30;55.00;;;;;;5067220;28;20094;-82
2021/01/15 10:46:49;;;;;;;18.23;11.03;;;2.40;54.90;;;;;;5077062;28;20024;-82
2021/01/15 10:49:16;;;;;;;16.77;11.73;;;2.70;55.30;;;;;;5067689;28;20035;-82
2021/01/15 10:51:43;;;;;;;19.97;11.80;;;2.90;55.00;;;;;;5068493;28;20387;-82
2021/01/15 10:54:09;;;;;;;16.57;10.10;;;3.00;55.00;;;;;;5075044;28;20567;-82
2021/01/15 10:56:43;;;;;;;16.57;9.47;;;3.20;55.10;;;;;;5075511;28;20031;-82
2021/01/15 10:59:09;;;;;;;14.27;9.60;;;3.40;55.00;;;;;;5083101;28;20117;-82
2021/01/15 11:01:36;;;;;;;14.90;9.63;;;3.50;55.00;;;;;;5066355;28;20076;-83
2021/01/15 11:04:03;;;;;;;17.67;10.67;;;3.60;54.80;;;;;;5056545;28;20079;-83
2021/01/15 11:06:28;;;;;;;13.97;9.63;;;3.60;54.50;;;;;;5056420;28;20040;-83
2021/01/15 11:08:54;;;;;;;15.07;10.03;;;3.50;54.40;;;;;;5056959;28;20028;-83
2021/01/15 11:11:20;;;;;;;15.73;9.70;;;3.50;54.50;;;;;;5064234;28;20020;-83
2021/01/15 11:13:46;;;;;;;13.97;8.80;;;3.60;54.90;;;;;;5075524;28;20028;-83
2021/01/15 11:16:13;;;;;;;16.70;8.80;;;3.80;54.60;;;;;;5069130;28;20399;-83
2021/01/15 11:18:38;;;;;;;15.37;9.53;;;4.10;54.60;;;;;;5055557;28;20052;-83
2021/01/15 11:21:05;;;;;;;15.57;9.07;;;4.20;54.20;;;;;;5054882;28;20036;-83
2021/01/15 11:23:31;;;;;;;14.80;9.33;;;4.30;54.10;;;;;;5072203;28;20032;-83
2021/01/15 11:25:57;;;;;;;18.20;10.43;;;4.40;53.80;;;;;;5076427;28;20322;-82
2021/01/15 11:28:22;;;;;;;14.90;9.63;;;4.40;53.80;;;;;;5076042;28;20020;-82
2021/01/15 11:30:48;;;;;;;12.97;8.27;;;4.40;53.80;;;;;;5075775;28;20513;-82
2021/01/15 11:33:14;;;;;;;15.17;9.50;;;4.50;53.70;;;;;;5075346;28;20020;-82
2021/01/15 11:35:40;;;;;;;12.27;8.93;;;4.60;53.30;;;;;;5056111;28;20087;-82
2021/01/15 11:38:05;;;;;;;12.70;8.07;;;4.50;53.20;;;;;;5055602;28;20025;-83
2021/01/15 11:40:31;;;;;;;14.03;9.03;;;4.40;53.10;;;;;;5056610;28;20136;-82
2021/01/15 11:42:58;;;;;;;13.37;9.13;;;4.30;53.40;;;;;;5074051;28;20111;-82
2021/01/15 11:45:27;;;;;;;13.63;10.13;;;4.40;53.60;;;;;;5054649;28;20060;-82
2021/01/15 11:47:54;;;;;;;17.90;10.47;;;4.40;53.40;;;;;;5055371;28;20017;-82
2021/01/15 11:50:20;;;;;;;14.30;9.40;;;4.20;53.00;;;;;;5068639;28;20120;-82
2021/01/15 11:52:46;;;;;;;13.40;9.27;;;4.30;53.30;;;;;;5073877;28;20032;-82
2021/01/15 11:55:13;;;;;;;19.17;11.63;;;4.40;53.30;;;;;;5072500;28;20402;-82
2021/01/15 11:57:40;;;;;;;17.03;11.43;;;4.50;53.20;;;;;;5074975;28;20017;-82
2021/01/15 12:00:07;;;;;;;15.90;10.97;;;4.30;52.70;;;;;;5074431;28;20027;-83
2021/01/15 12:02:33;;;;;;;17.53;11.87;;;4.20;53.00;;;;;;5076619;28;20475;-83
2021/01/15 12:04:59;;;;;;;15.53;11.13;;;4.20;53.10;;;;;;5065454;28;20025;-83
2021/01/15 12:07:28;;;;;;;15.37;10.20;;;4.20;53.30;;;;;;5055722;28;20117;-83
2021/01/15 12:09:54;;;;;;;12.13;8.00;;;4.30;53.50;;;;;;5061750;28;20036;-82
2021/01/15 12:12:20;;;;;;;14.50;8.07;;;4.40;53.40;;;;;;5062865;28;20021;-82
2021/01/15 12:14:45;;;;;;;11.60;6.60;;;4.40;53.30;;;;;;5072572;28;20096;-82
2021/01/15 12:17:11;;;;;;;11.80;5.70;;;4.40;53.10;;;;;;5062298;28;20025;-82
2021/01/15 12:19:37;;;;;;;12.77;7.10;;;4.40;53.00;;;;;;5075893;28;20111;-82
2021/01/15 12:22:02;;;;;;;9.73;6.33;;;4.60;53.50;;;;;;5061762;28;20021;-82
2021/01/15 12:24:28;;;;;;;11.37;6.70;;;4.60;52.90;;;;;;5060478;28;20139;-82
2021/01/15 12:26:59;;;;;;;13.43;6.80;;;4.70;53.10;;;;;;5063477;28;20024;-82
2021/01/15 12:29:27;;;;;;;12.50;6.50;;;4.70;52.70;;;;;;5064808;28;20053;-82
2021/01/15 12:31:54;;;;;;;10.17;6.60;;;4.60;52.90;;;;;;5059736;28;20381;-82
2021/01/15 12:34:20;;;;;;;11.27;6.03;;;4.70;52.90;;;;;;5064131;28;20077;-82
2021/01/15 12:36:46;;;;;;;9.90;6.37;;;4.70;52.70;;;;;;5058405;28;20025;-82
2021/01/15 12:39:12;;;;;;;8.90;6.10;;;4.60;52.10;;;;;;5070073;28;20038;-82
2021/01/15 12:41:37;;;;;;;9.37;6.43;;;4.40;52.70;;;;;;5066043;28;20035;-82
2021/01/15 12:44:03;;;;;;;11.17;7.20;;;4.40;52.80;;;;;;5073460;28;20041;-82
2021/01/15 12:46:29;;;;;;;12.00;6.77;;;4.40;53.00;;;;;;5064320;28;20111;-82